sensor_id;sensor_type;location;lat;lon;timestamp;P1;durP1;ratioP1;P2;durP2;ratioP2
81487;SDS011;70897;52.464;13.428;2024-02-21T00:02:40;20.77;;;6.07;;
81487;SDS011;70897;52.464;13.428;2024-02-21T00:05:25;22.20;;;6.18;;
81487;SDS011;70897;52.464;13.428;2024-02-21T00:08:10;22.02;;;7.22;;
81487;SDS011;70897;52.464;13.428;2024-02-21T00:10:55;30.05;;;6.40;;
81487;SDS011;70897;52.464;13.428;2024-02-21T00:13:40;26.25;;;6.13;;
81487;SDS011;70897;52.464;13.428;2024-02-21T00:16:25;24.17;;;6.25;;
81487;SDS011;70897;52.464;13.428;2024-02-21T00:19:11;19.88;;;6.30;;
81487;SDS011;70897;52.464;13.428;2024-02-21T00:21:56;21.88;;;6.40;;
81487;SDS011;70897;52.464;13.428;2024-02-21T00:24:41;23.58;;;6.85;;
81487;SDS011;70897;52.464;13.428;2024-02-21T00:27:26;22.25;;;6.15;;
81487;SDS011;70897;52.464;13.428;2024-02-21T00:30:11;25.15;;;6.38;;
81487;SDS011;70897;52.464;13.428;2024-02-21T00:32:56;27.52;;;6.18;;
81487;SDS011;70897;52.464;13.428;2024-02-21T00:35:41;27.23;;;7.05;;
81487;SDS011;70897;52.464;13.428;2024-02-21T00:38:26;30.70;;;6.47;;
81487;SDS011;70897;52.464;13.428;2024-02-21T00:41:12;25.83;;;6.40;;
81487;SDS011;70897;52.464;13.428;2024-02-21T00:43:57;17.85;;;6.25;;
81487;SDS011;70897;52.464;13.428;2024-02-21T00:46:42;28.25;;;6.40;;
81487;SDS011;70897;52.464;13.428;2024-02-21T00:49:27;21.02;;;6.15;;
81487;SDS011;70897;52.464;13.428;2024-02-21T00:52:12;19.67;;;5.60;;
81487;SDS011;70897;52.464;13.428;2024-02-21T00:54:57;24.25;;;6.38;;
81487;SDS011;70897;52.464;13.428;2024-02-21T00:57:42;22.60;;;5.82;;
81487;SDS011;70897;52.464;13.428;2024-02-21T01:00:27;23.50;;;6.03;;
81487;SDS011;70897;52.464;13.428;2024-02-21T01:03:12;19.52;;;5.45;;
81487;SDS011;70897;52.464;13.428;2024-02-21T01:05:57;24.85;;;5.63;;
81487;SDS011;70897;52.464;13.428;2024-02-21T01:08:42;24.00;;;5.70;;
81487;SDS011;70897;52.464;13.428;2024-02-21T01:11:27;19.10;;;5.15;;
81487;SDS011;70897;52.464;13.428;2024-02-21T01:14:12;22.45;;;5.15;;
81487;SDS011;70897;52.464;13.428;2024-02-21T01:16:57;23.50;;;5.93;;
81487;SDS011;70897;52.464;13.428;2024-02-21T01:19:42;25.88;;;5.32;;
81487;SDS011;70897;52.464;13.428;2024-02-21T01:22:27;24.50;;;4.95;;
81487;SDS011;70897;52.464;13.428;2024-02-21T01:25:13;17.30;;;5.22;;
81487;SDS011;70897;52.464;13.428;2024-02-21T01:27:58;20.42;;;5.32;;
81487;SDS011;70897;52.464;13.428;2024-02-21T01:30:43;27.15;;;5.85;;
81487;SDS011;70897;52.464;13.428;2024-02-21T01:33:28;25.85;;;5.85;;
81487;SDS011;70897;52.464;13.428;2024-02-21T01:36:18;17.88;;;4.80;;
81487;SDS011;70897;52.464;13.428;2024-02-21T01:39:03;19.17;;;5.13;;
81487;SDS011;70897;52.464;13.428;2024-02-21T01:41:48;18.33;;;5.07;;
81487;SDS011;70897;52.464;13.428;2024-02-21T01:44:33;20.92;;;5.03;;
81487;SDS011;70897;52.464;13.428;2024-02-21T01:47:18;18.50;;;5.28;;
81487;SDS011;70897;52.464;13.428;2024-02-21T01:50:04;26.65;;;6.40;;
81487;SDS011;70897;52.464;13.428;2024-02-21T01:52:50;20.27;;;5.80;;
81487;SDS011;70897;52.464;13.428;2024-02-21T01:55:35;18.33;;;5.05;;
81487;SDS011;70897;52.464;13.428;2024-02-21T01:58:20;19.30;;;5.05;;
81487;SDS011;70897;52.464;13.428;2024-02-21T02:01:08;17.88;;;4.40;;
81487;SDS011;70897;52.464;13.428;2024-02-21T02:03:54;19.08;;;5.38;;
81487;SDS011;70897;52.464;13.428;2024-02-21T02:06:40;22.52;;;4.88;;
81487;SDS011;70897;52.464;13.428;2024-02-21T02:09:26;19.85;;;5.38;;
81487;SDS011;70897;52.464;13.428;2024-02-21T02:12:10;20.17;;;4.85;;
81487;SDS011;70897;52.464;13.428;2024-02-21T02:15:02;23.88;;;5.57;;
81487;SDS011;70897;52.464;13.428;2024-02-21T02:17:51;18.88;;;5.25;;
81487;SDS011;70897;52.464;13.428;2024-02-21T02:20:36;17.73;;;5.47;;
81487;SDS011;70897;52.464;13.428;2024-02-21T02:23:22;24.08;;;5.65;;
81487;SDS011;70897;52.464;13.428;2024-02-21T02:26:11;17.45;;;5.30;;
81487;SDS011;70897;52.464;13.428;2024-02-21T02:28:57;22.88;;;5.72;;
81487;SDS011;70897;52.464;13.428;2024-02-21T02:31:42;22.98;;;5.50;;
81487;SDS011;70897;52.464;13.428;2024-02-21T02:34:27;20.55;;;5.65;;
81487;SDS011;70897;52.464;13.428;2024-02-21T02:37:12;21.40;;;6.25;;
81487;SDS011;70897;52.464;13.428;2024-02-21T02:39:57;24.83;;;5.93;;
81487;SDS011;70897;52.464;13.428;2024-02-21T02:42:43;19.05;;;5.93;;
81487;SDS011;70897;52.464;13.428;2024-02-21T02:45:28;26.10;;;5.85;;
81487;SDS011;70897;52.464;13.428;2024-02-21T02:48:13;25.48;;;6.47;;
81487;SDS011;70897;52.464;13.428;2024-02-21T02:50:58;26.15;;;6.30;;
81487;SDS011;70897;52.464;13.428;2024-02-21T02:53:43;24.63;;;6.85;;
81487;SDS011;70897;52.464;13.428;2024-02-21T02:56:28;18.90;;;5.80;;
81487;SDS011;70897;52.464;13.428;2024-02-21T02:59:13;26.42;;;6.05;;
81487;SDS011;70897;52.464;13.428;2024-02-21T03:01:58;23.80;;;7.60;;
81487;SDS011;70897;52.464;13.428;2024-02-21T03:04:43;19.15;;;6.55;;
81487;SDS011;70897;52.464;13.428;2024-02-21T03:07:28;23.52;;;6.18;;
81487;SDS011;70897;52.464;13.428;2024-02-21T03:10:13;24.85;;;6.43;;
81487;SDS011;70897;52.464;13.428;2024-02-21T03:13:00;21.95;;;6.55;;
81487;SDS011;70897;52.464;13.428;2024-02-21T03:15:46;22.55;;;6.85;;
81487;SDS011;70897;52.464;13.428;2024-02-21T03:18:31;23.30;;;7.20;;
81487;SDS011;70897;52.464;13.428;2024-02-21T03:21:16;31.10;;;6.95;;
81487;SDS011;70897;52.464;13.428;2024-02-21T03:24:01;28.38;;;7.45;;
81487;SDS011;70897;52.464;13.428;2024-02-21T03:26:46;20.88;;;7.40;;
81487;SDS011;70897;52.464;13.428;2024-02-21T03:29:34;24.75;;;7.60;;
81487;SDS011;70897;52.464;13.428;2024-02-21T03:32:19;27.35;;;7.60;;
81487;SDS011;70897;52.464;13.428;2024-02-21T03:35:05;27.88;;;7.30;;
81487;SDS011;70897;52.464;13.428;2024-02-21T03:37:50;27.83;;;7.38;;
81487;SDS011;70897;52.464;13.428;2024-02-21T03:40:35;25.83;;;7.45;;
81487;SDS011;70897;52.464;13.428;2024-02-21T03:43:20;27.63;;;8.00;;
81487;SDS011;70897;52.464;13.428;2024-02-21T03:46:05;28.27;;;7.57;;
81487;SDS011;70897;52.464;13.428;2024-02-21T03:48:51;34.30;;;8.45;;
81487;SDS011;70897;52.464;13.428;2024-02-21T03:51:36;25.58;;;7.75;;
81487;SDS011;70897;52.464;13.428;2024-02-21T03:54:21;25.92;;;7.95;;
81487;SDS011;70897;52.464;13.428;2024-02-21T03:57:06;27.65;;;8.25;;
81487;SDS011;70897;52.464;13.428;2024-02-21T03:59:51;25.23;;;7.55;;
81487;SDS011;70897;52.464;13.428;2024-02-21T04:02:36;19.23;;;6.90;;
81487;SDS011;70897;52.464;13.428;2024-02-21T04:05:22;26.83;;;8.20;;
81487;SDS011;70897;52.464;13.428;2024-02-21T04:08:07;27.17;;;8.10;;
81487;SDS011;70897;52.464;13.428;2024-02-21T04:10:52;25.15;;;7.93;;
81487;SDS011;70897;52.464;13.428;2024-02-21T04:13:37;32.55;;;8.25;;
81487;SDS011;70897;52.464;13.428;2024-02-21T04:16:22;35.53;;;7.90;;
81487;SDS011;70897;52.464;13.428;2024-02-21T04:19:07;22.58;;;7.82;;
81487;SDS011;70897;52.464;13.428;2024-02-21T04:21:52;25.58;;;8.60;;
81487;SDS011;70897;52.464;13.428;2024-02-21T04:24:37;25.10;;;7.95;;
81487;SDS011;70897;52.464;13.428;2024-02-21T04:27:22;33.78;;;8.27;;
81487;SDS011;70897;52.464;13.428;2024-02-21T04:30:07;27.45;;;8.80;;
81487;SDS011;70897;52.464;13.428;2024-02-21T04:32:54;27.88;;;8.82;;
81487;SDS011;70897;52.464;13.428;2024-02-21T04:35:39;26.85;;;8.02;;
81487;SDS011;70897;52.464;13.428;2024-02-21T04:38:24;28.25;;;8.15;;
81487;SDS011;70897;52.464;13.428;2024-02-21T04:41:09;35.25;;;8.25;;
81487;SDS011;70897;52.464;13.428;2024-02-21T04:43:54;24.02;;;7.30;;
81487;SDS011;70897;52.464;13.428;2024-02-21T04:46:41;33.50;;;7.97;;
81487;SDS011;70897;52.464;13.428;2024-02-21T04:49:27;31.63;;;8.75;;
81487;SDS011;70897;52.464;13.428;2024-02-21T04:52:12;21.63;;;8.02;;
81487;SDS011;70897;52.464;13.428;2024-02-21T04:54:57;24.42;;;8.27;;
81487;SDS011;70897;52.464;13.428;2024-02-21T04:57:42;30.80;;;8.75;;
81487;SDS011;70897;52.464;13.428;2024-02-21T05:00:27;27.92;;;8.40;;
81487;SDS011;70897;52.464;13.428;2024-02-21T05:03:12;23.65;;;8.05;;
81487;SDS011;70897;52.464;13.428;2024-02-21T05:05:56;27.50;;;8.23;;
81487;SDS011;70897;52.464;13.428;2024-02-21T05:08:41;31.13;;;8.90;;
81487;SDS011;70897;52.464;13.428;2024-02-21T05:11:27;25.10;;;8.35;;
81487;SDS011;70897;52.464;13.428;2024-02-21T05:14:12;29.52;;;8.82;;
81487;SDS011;70897;52.464;13.428;2024-02-21T05:16:57;27.88;;;7.88;;
81487;SDS011;70897;52.464;13.428;2024-02-21T05:19:42;32.55;;;8.77;;
81487;SDS011;70897;52.464;13.428;2024-02-21T05:22:27;31.73;;;8.60;;
81487;SDS011;70897;52.464;13.428;2024-02-21T05:25:12;31.40;;;9.05;;
81487;SDS011;70897;52.464;13.428;2024-02-21T05:27:57;26.20;;;9.55;;
81487;SDS011;70897;52.464;13.428;2024-02-21T05:30:46;27.98;;;8.38;;
81487;SDS011;70897;52.464;13.428;2024-02-21T05:33:31;21.20;;;8.15;;
81487;SDS011;70897;52.464;13.428;2024-02-21T05:36:16;28.88;;;8.75;;
81487;SDS011;70897;52.464;13.428;2024-02-21T05:39:01;27.58;;;8.43;;
81487;SDS011;70897;52.464;13.428;2024-02-21T05:41:46;30.17;;;9.38;;
81487;SDS011;70897;52.464;13.428;2024-02-21T05:44:31;30.70;;;10.23;;
81487;SDS011;70897;52.464;13.428;2024-02-21T05:47:16;22.33;;;8.18;;
81487;SDS011;70897;52.464;13.428;2024-02-21T05:50:01;27.15;;;8.65;;
81487;SDS011;70897;52.464;13.428;2024-02-21T05:52:46;26.27;;;9.52;;
81487;SDS011;70897;52.464;13.428;2024-02-21T05:55:31;28.85;;;9.07;;
81487;SDS011;70897;52.464;13.428;2024-02-21T05:58:16;29.95;;;9.00;;
81487;SDS011;70897;52.464;13.428;2024-02-21T06:01:01;23.05;;;7.97;;
81487;SDS011;70897;52.464;13.428;2024-02-21T06:03:47;30.42;;;8.70;;
81487;SDS011;70897;52.464;13.428;2024-02-21T06:06:32;23.08;;;8.52;;
81487;SDS011;70897;52.464;13.428;2024-02-21T06:09:17;25.83;;;8.85;;
81487;SDS011;70897;52.464;13.428;2024-02-21T06:12:03;25.50;;;8.75;;
81487;SDS011;70897;52.464;13.428;2024-02-21T06:14:48;28.23;;;9.15;;
81487;SDS011;70897;52.464;13.428;2024-02-21T06:17:33;22.20;;;8.75;;
81487;SDS011;70897;52.464;13.428;2024-02-21T06:20:17;25.40;;;9.70;;
81487;SDS011;70897;52.464;13.428;2024-02-21T06:23:03;28.48;;;9.32;;
81487;SDS011;70897;52.464;13.428;2024-02-21T06:25:48;24.50;;;8.88;;
81487;SDS011;70897;52.464;13.428;2024-02-21T06:28:33;23.88;;;8.82;;
81487;SDS011;70897;52.464;13.428;2024-02-21T06:31:18;20.27;;;8.00;;
81487;SDS011;70897;52.464;13.428;2024-02-21T06:34:03;25.10;;;8.60;;
81487;SDS011;70897;52.464;13.428;2024-02-21T06:36:48;21.75;;;8.43;;
81487;SDS011;70897;52.464;13.428;2024-02-21T06:39:34;28.40;;;9.68;;
81487;SDS011;70897;52.464;13.428;2024-02-21T06:42:21;23.75;;;8.52;;
81487;SDS011;70897;52.464;13.428;2024-02-21T06:45:09;27.27;;;9.20;;
81487;SDS011;70897;52.464;13.428;2024-02-21T06:47:54;25.65;;;9.63;;
81487;SDS011;70897;52.464;13.428;2024-02-21T06:50:39;24.35;;;9.25;;
81487;SDS011;70897;52.464;13.428;2024-02-21T06:53:24;22.73;;;8.52;;
81487;SDS011;70897;52.464;13.428;2024-02-21T06:56:09;29.50;;;8.65;;
81487;SDS011;70897;52.464;13.428;2024-02-21T06:58:54;22.95;;;9.15;;
81487;SDS011;70897;52.464;13.428;2024-02-21T07:01:40;21.83;;;8.60;;
81487;SDS011;70897;52.464;13.428;2024-02-21T07:04:28;26.90;;;9.18;;
81487;SDS011;70897;52.464;13.428;2024-02-21T07:07:13;26.38;;;8.88;;
81487;SDS011;70897;52.464;13.428;2024-02-21T07:09:59;24.00;;;8.98;;
81487;SDS011;70897;52.464;13.428;2024-02-21T07:12:44;24.23;;;8.48;;
81487;SDS011;70897;52.464;13.428;2024-02-21T07:15:29;20.13;;;8.20;;
81487;SDS011;70897;52.464;13.428;2024-02-21T07:18:15;19.10;;;9.13;;
81487;SDS011;70897;52.464;13.428;2024-02-21T07:21:00;24.52;;;8.60;;
81487;SDS011;70897;52.464;13.428;2024-02-21T07:23:45;20.95;;;8.35;;
81487;SDS011;70897;52.464;13.428;2024-02-21T07:26:31;21.00;;;9.07;;
81487;SDS011;70897;52.464;13.428;2024-02-21T07:29:16;19.98;;;7.80;;
81487;SDS011;70897;52.464;13.428;2024-02-21T07:32:02;22.38;;;8.07;;
81487;SDS011;70897;52.464;13.428;2024-02-21T07:34:46;20.27;;;8.02;;
81487;SDS011;70897;52.464;13.428;2024-02-21T07:37:31;24.45;;;7.55;;
81487;SDS011;70897;52.464;13.428;2024-02-21T07:40:17;18.65;;;7.78;;
81487;SDS011;70897;52.464;13.428;2024-02-21T07:43:02;18.25;;;6.90;;
81487;SDS011;70897;52.464;13.428;2024-02-21T07:45:47;20.08;;;7.30;;
81487;SDS011;70897;52.464;13.428;2024-02-21T07:48:32;18.05;;;7.43;;
81487;SDS011;70897;52.464;13.428;2024-02-21T07:51:17;22.17;;;7.50;;
81487;SDS011;70897;52.464;13.428;2024-02-21T07:54:02;21.45;;;7.53;;
81487;SDS011;70897;52.464;13.428;2024-02-21T07:56:48;19.42;;;7.80;;
81487;SDS011;70897;52.464;13.428;2024-02-21T07:59:33;24.38;;;7.28;;
81487;SDS011;70897;52.464;13.428;2024-02-21T08:02:18;20.60;;;7.13;;
81487;SDS011;70897;52.464;13.428;2024-02-21T08:05:03;22.50;;;7.45;;
81487;SDS011;70897;52.464;13.428;2024-02-21T08:07:48;16.70;;;7.40;;
81487;SDS011;70897;52.464;13.428;2024-02-21T08:10:33;21.48;;;8.30;;
81487;SDS011;70897;52.464;13.428;2024-02-21T08:13:18;20.95;;;7.72;;
81487;SDS011;70897;52.464;13.428;2024-02-21T08:16:03;20.27;;;8.00;;
81487;SDS011;70897;52.464;13.428;2024-02-21T08:18:48;22.58;;;7.70;;
81487;SDS011;70897;52.464;13.428;2024-02-21T08:21:33;16.40;;;7.40;;
81487;SDS011;70897;52.464;13.428;2024-02-21T08:24:18;16.00;;;7.65;;
81487;SDS011;70897;52.464;13.428;2024-02-21T08:27:04;21.83;;;9.07;;
81487;SDS011;70897;52.464;13.428;2024-02-21T08:29:49;22.40;;;11.13;;
81487;SDS011;70897;52.464;13.428;2024-02-21T08:32:34;21.10;;;9.65;;
81487;SDS011;70897;52.464;13.428;2024-02-21T08:35:20;21.15;;;8.80;;
81487;SDS011;70897;52.464;13.428;2024-02-21T08:38:08;22.25;;;9.77;;
81487;SDS011;70897;52.464;13.428;2024-02-21T08:40:53;26.33;;;8.10;;
81487;SDS011;70897;52.464;13.428;2024-02-21T08:43:38;20.65;;;8.52;;
81487;SDS011;70897;52.464;13.428;2024-02-21T08:46:23;17.88;;;7.70;;
81487;SDS011;70897;52.464;13.428;2024-02-21T08:49:09;22.85;;;8.50;;
81487;SDS011;70897;52.464;13.428;2024-02-21T08:51:54;20.35;;;8.25;;
81487;SDS011;70897;52.464;13.428;2024-02-21T08:54:40;19.65;;;9.00;;
81487;SDS011;70897;52.464;13.428;2024-02-21T08:57:25;20.25;;;8.93;;
81487;SDS011;70897;52.464;13.428;2024-02-21T09:00:10;19.27;;;8.52;;
81487;SDS011;70897;52.464;13.428;2024-02-21T09:02:55;22.33;;;8.60;;
81487;SDS011;70897;52.464;13.428;2024-02-21T09:05:40;19.60;;;8.70;;
81487;SDS011;70897;52.464;13.428;2024-02-21T09:08:25;23.10;;;9.07;;
81487;SDS011;70897;52.464;13.428;2024-02-21T09:11:10;21.33;;;8.73;;
81487;SDS011;70897;52.464;13.428;2024-02-21T09:13:55;20.15;;;8.43;;
81487;SDS011;70897;52.464;13.428;2024-02-21T09:16:40;25.00;;;9.35;;
81487;SDS011;70897;52.464;13.428;2024-02-21T09:19:26;20.55;;;8.40;;
81487;SDS011;70897;52.464;13.428;2024-02-21T09:22:11;23.13;;;9.98;;
81487;SDS011;70897;52.464;13.428;2024-02-21T09:24:56;19.35;;;9.20;;
81487;SDS011;70897;52.464;13.428;2024-02-21T09:27:43;19.65;;;9.10;;
81487;SDS011;70897;52.464;13.428;2024-02-21T09:30:29;26.20;;;9.65;;
81487;SDS011;70897;52.464;13.428;2024-02-21T09:33:14;21.90;;;8.80;;
81487;SDS011;70897;52.464;13.428;2024-02-21T09:35:59;21.30;;;9.07;;
81487;SDS011;70897;52.464;13.428;2024-02-21T09:38:45;20.17;;;9.43;;
81487;SDS011;70897;52.464;13.428;2024-02-21T09:41:30;20.67;;;9.15;;
81487;SDS011;70897;52.464;13.428;2024-02-21T09:44:15;20.88;;;9.23;;
81487;SDS011;70897;52.464;13.428;2024-02-21T09:47:02;16.60;;;8.40;;
81487;SDS011;70897;52.464;13.428;2024-02-21T09:49:49;16.98;;;9.20;;
81487;SDS011;70897;52.464;13.428;2024-02-21T09:52:35;18.58;;;8.80;;
81487;SDS011;70897;52.464;13.428;2024-02-21T09:55:22;17.13;;;8.57;;
81487;SDS011;70897;52.464;13.428;2024-02-21T09:58:09;21.52;;;8.45;;
81487;SDS011;70897;52.464;13.428;2024-02-21T10:00:54;19.08;;;8.10;;
81487;SDS011;70897;52.464;13.428;2024-02-21T10:03:39;16.73;;;8.07;;
81487;SDS011;70897;52.464;13.428;2024-02-21T10:06:24;19.80;;;8.95;;
81487;SDS011;70897;52.464;13.428;2024-02-21T10:09:19;17.77;;;8.55;;
81487;SDS011;70897;52.464;13.428;2024-02-21T10:12:13;19.63;;;8.35;;
81487;SDS011;70897;52.464;13.428;2024-02-21T10:15:03;18.98;;;8.50;;
81487;SDS011;70897;52.464;13.428;2024-02-21T10:17:49;14.20;;;7.70;;
81487;SDS011;70897;52.464;13.428;2024-02-21T10:20:45;19.45;;;8.20;;
81487;SDS011;70897;52.464;13.428;2024-02-21T10:23:51;17.33;;;7.80;;
81487;SDS011;70897;52.464;13.428;2024-02-21T10:26:36;15.52;;;8.10;;
81487;SDS011;70897;52.464;13.428;2024-02-21T10:29:22;17.05;;;7.85;;
81487;SDS011;70897;52.464;13.428;2024-02-21T10:32:07;17.65;;;7.65;;
81487;SDS011;70897;52.464;13.428;2024-02-21T10:35:03;16.08;;;7.85;;
81487;SDS011;70897;52.464;13.428;2024-02-21T10:37:49;18.17;;;7.53;;
81487;SDS011;70897;52.464;13.428;2024-02-21T10:40:34;16.90;;;7.38;;
81487;SDS011;70897;52.464;13.428;2024-02-21T10:43:19;15.98;;;7.93;;
81487;SDS011;70897;52.464;13.428;2024-02-21T10:46:09;16.63;;;7.53;;
81487;SDS011;70897;52.464;13.428;2024-02-21T10:49:01;16.33;;;7.70;;
81487;SDS011;70897;52.464;13.428;2024-02-21T10:51:55;16.20;;;7.93;;
81487;SDS011;70897;52.464;13.428;2024-02-21T10:54:53;14.45;;;8.30;;
81487;SDS011;70897;52.464;13.428;2024-02-21T10:57:42;16.63;;;8.20;;
81487;SDS011;70897;52.464;13.428;2024-02-21T11:00:28;14.02;;;7.90;;
81487;SDS011;70897;52.464;13.428;2024-02-21T11:03:15;17.80;;;7.57;;
81487;SDS011;70897;52.464;13.428;2024-02-21T11:06:00;14.85;;;6.95;;
81487;SDS011;70897;52.464;13.428;2024-02-21T11:08:46;14.48;;;7.70;;
81487;SDS011;70897;52.464;13.428;2024-02-21T11:14:21;17.33;;;7.82;;
81487;SDS011;70897;52.464;13.428;2024-02-21T11:17:16;18.75;;;7.40;;
81487;SDS011;70897;52.464;13.428;2024-02-21T11:20:12;16.27;;;7.38;;
81487;SDS011;70897;52.464;13.428;2024-02-21T11:22:58;16.52;;;7.35;;
81487;SDS011;70897;52.464;13.428;2024-02-21T11:25:43;10.57;;;6.20;;
81487;SDS011;70897;52.464;13.428;2024-02-21T11:28:28;17.20;;;6.60;;
81487;SDS011;70897;52.464;13.428;2024-02-21T11:31:13;13.02;;;5.95;;
81487;SDS011;70897;52.464;13.428;2024-02-21T11:34:09;11.90;;;6.22;;
81487;SDS011;70897;52.464;13.428;2024-02-21T11:36:55;14.20;;;5.80;;
81487;SDS011;70897;52.464;13.428;2024-02-21T11:39:40;11.05;;;4.93;;
81487;SDS011;70897;52.464;13.428;2024-02-21T11:42:26;66.10;;;24.50;;
81487;SDS011;70897;52.464;13.428;2024-02-21T11:45:14;22.33;;;8.32;;
81487;SDS011;70897;52.464;13.428;2024-02-21T11:47:59;9.57;;;4.88;;
81487;SDS011;70897;52.464;13.428;2024-02-21T11:50:52;8.55;;;4.57;;
81487;SDS011;70897;52.464;13.428;2024-02-21T11:53:39;10.20;;;4.82;;
81487;SDS011;70897;52.464;13.428;2024-02-21T11:56:24;15.30;;;6.35;;
81487;SDS011;70897;52.464;13.428;2024-02-21T11:59:10;7.93;;;4.20;;
81487;SDS011;70897;52.464;13.428;2024-02-21T12:01:55;8.82;;;4.28;;
81487;SDS011;70897;52.464;13.428;2024-02-21T12:04:42;8.57;;;4.20;;
81487;SDS011;70897;52.464;13.428;2024-02-21T12:07:28;9.23;;;4.10;;
81487;SDS011;70897;52.464;13.428;2024-02-21T12:10:14;7.38;;;3.83;;
81487;SDS011;70897;52.464;13.428;2024-02-21T12:13:08;9.32;;;4.00;;
81487;SDS011;70897;52.464;13.428;2024-02-21T12:15:53;9.18;;;3.90;;
81487;SDS011;70897;52.464;13.428;2024-02-21T12:18:38;7.13;;;3.50;;
81487;SDS011;70897;52.464;13.428;2024-02-21T12:21:27;7.72;;;3.70;;
81487;SDS011;70897;52.464;13.428;2024-02-21T12:24:15;9.10;;;3.92;;
81487;SDS011;70897;52.464;13.428;2024-02-21T12:27:07;6.93;;;3.63;;
81487;SDS011;70897;52.464;13.428;2024-02-21T12:29:52;6.78;;;3.70;;
81487;SDS011;70897;52.464;13.428;2024-02-21T12:32:37;10.30;;;3.70;;
81487;SDS011;70897;52.464;13.428;2024-02-21T12:35:22;6.57;;;3.17;;
81487;SDS011;70897;52.464;13.428;2024-02-21T12:38:10;7.00;;;3.90;;
81487;SDS011;70897;52.464;13.428;2024-02-21T12:40:56;16.77;;;10.60;;
81487;SDS011;70897;52.464;13.428;2024-02-21T12:43:44;11.48;;;6.35;;
81487;SDS011;70897;52.464;13.428;2024-02-21T12:46:30;7.10;;;3.80;;
81487;SDS011;70897;52.464;13.428;2024-02-21T12:49:16;6.20;;;3.55;;
81487;SDS011;70897;52.464;13.428;2024-02-21T12:52:02;6.85;;;3.28;;
81487;SDS011;70897;52.464;13.428;2024-02-21T12:54:47;11.15;;;3.70;;
81487;SDS011;70897;52.464;13.428;2024-02-21T12:57:35;8.82;;;3.75;;
81487;SDS011;70897;52.464;13.428;2024-02-21T13:00:21;11.30;;;3.60;;
81487;SDS011;70897;52.464;13.428;2024-02-21T13:03:10;7.85;;;3.63;;
81487;SDS011;70897;52.464;13.428;2024-02-21T13:05:56;8.48;;;4.00;;
81487;SDS011;70897;52.464;13.428;2024-02-21T13:08:43;9.02;;;4.07;;
81487;SDS011;70897;52.464;13.428;2024-02-21T13:11:29;9.63;;;3.92;;
81487;SDS011;70897;52.464;13.428;2024-02-21T13:14:15;11.85;;;4.15;;
81487;SDS011;70897;52.464;13.428;2024-02-21T13:17:01;11.10;;;4.30;;
81487;SDS011;70897;52.464;13.428;2024-02-21T13:19:46;7.65;;;3.85;;
81487;SDS011;70897;52.464;13.428;2024-02-21T13:22:31;9.00;;;4.45;;
81487;SDS011;70897;52.464;13.428;2024-02-21T13:25:16;9.38;;;4.00;;
81487;SDS011;70897;52.464;13.428;2024-02-21T13:28:05;10.32;;;4.45;;
81487;SDS011;70897;52.464;13.428;2024-02-21T13:30:51;12.98;;;4.47;;
81487;SDS011;70897;52.464;13.428;2024-02-21T13:33:36;10.07;;;4.53;;
81487;SDS011;70897;52.464;13.428;2024-02-21T13:36:23;9.90;;;4.72;;
81487;SDS011;70897;52.464;13.428;2024-02-21T13:39:08;11.73;;;4.57;;
81487;SDS011;70897;52.464;13.428;2024-02-21T13:41:57;9.90;;;4.70;;
81487;SDS011;70897;52.464;13.428;2024-02-21T13:44:43;9.95;;;4.80;;
81487;SDS011;70897;52.464;13.428;2024-02-21T13:47:28;12.32;;;4.53;;
81487;SDS011;70897;52.464;13.428;2024-02-21T13:50:14;11.23;;;4.68;;
81487;SDS011;70897;52.464;13.428;2024-02-21T13:52:59;13.15;;;4.38;;
81487;SDS011;70897;52.464;13.428;2024-02-21T13:55:45;10.43;;;4.63;;
81487;SDS011;70897;52.464;13.428;2024-02-21T13:58:30;8.82;;;4.35;;
81487;SDS011;70897;52.464;13.428;2024-02-21T14:01:16;7.32;;;3.72;;
81487;SDS011;70897;52.464;13.428;2024-02-21T14:04:02;9.57;;;3.97;;
81487;SDS011;70897;52.464;13.428;2024-02-21T14:06:48;10.13;;;4.00;;
81487;SDS011;70897;52.464;13.428;2024-02-21T14:09:33;8.52;;;3.72;;
81487;SDS011;70897;52.464;13.428;2024-02-21T14:12:19;10.85;;;3.85;;
81487;SDS011;70897;52.464;13.428;2024-02-21T14:15:05;9.65;;;4.25;;
81487;SDS011;70897;52.464;13.428;2024-02-21T14:17:51;12.07;;;4.50;;
81487;SDS011;70897;52.464;13.428;2024-02-21T14:20:37;9.85;;;4.18;;
81487;SDS011;70897;52.464;13.428;2024-02-21T14:23:22;9.57;;;3.95;;
81487;SDS011;70897;52.464;13.428;2024-02-21T14:26:07;11.38;;;4.03;;
81487;SDS011;70897;52.464;13.428;2024-02-21T14:28:53;8.77;;;4.05;;
81487;SDS011;70897;52.464;13.428;2024-02-21T14:31:38;9.52;;;4.20;;
81487;SDS011;70897;52.464;13.428;2024-02-21T14:34:23;9.52;;;4.20;;
81487;SDS011;70897;52.464;13.428;2024-02-21T14:37:10;10.88;;;4.13;;
81487;SDS011;70897;52.464;13.428;2024-02-21T14:39:56;8.63;;;3.88;;
81487;SDS011;70897;52.464;13.428;2024-02-21T14:42:44;8.75;;;3.72;;
81487;SDS011;70897;52.464;13.428;2024-02-21T14:45:30;9.05;;;4.22;;
81487;SDS011;70897;52.464;13.428;2024-02-21T14:48:15;12.15;;;4.20;;
81487;SDS011;70897;52.464;13.428;2024-02-21T14:51:00;10.30;;;4.07;;
81487;SDS011;70897;52.464;13.428;2024-02-21T14:53:46;13.20;;;4.30;;
81487;SDS011;70897;52.464;13.428;2024-02-21T14:56:32;8.88;;;3.85;;
81487;SDS011;70897;52.464;13.428;2024-02-21T14:59:17;10.90;;;3.60;;
81487;SDS011;70897;52.464;13.428;2024-02-21T15:02:03;7.38;;;3.35;;
81487;SDS011;70897;52.464;13.428;2024-02-21T15:04:48;9.23;;;3.72;;
81487;SDS011;70897;52.464;13.428;2024-02-21T15:07:35;10.02;;;3.88;;
81487;SDS011;70897;52.464;13.428;2024-02-21T15:10:21;9.70;;;3.97;;
81487;SDS011;70897;52.464;13.428;2024-02-21T15:13:06;10.13;;;3.63;;
81487;SDS011;70897;52.464;13.428;2024-02-21T15:15:52;10.80;;;4.00;;
81487;SDS011;70897;52.464;13.428;2024-02-21T15:18:37;8.27;;;3.47;;
81487;SDS011;70897;52.464;13.428;2024-02-21T15:21:22;11.82;;;3.60;;
81487;SDS011;70897;52.464;13.428;2024-02-21T15:24:08;9.93;;;3.60;;
81487;SDS011;70897;52.464;13.428;2024-02-21T15:26:53;9.13;;;3.78;;
81487;SDS011;70897;52.464;13.428;2024-02-21T15:29:39;12.27;;;4.07;;
81487;SDS011;70897;52.464;13.428;2024-02-21T15:32:24;10.30;;;4.20;;
81487;SDS011;70897;52.464;13.428;2024-02-21T15:35:10;9.73;;;3.70;;
81487;SDS011;70897;52.464;13.428;2024-02-21T15:37:56;9.63;;;3.40;;
81487;SDS011;70897;52.464;13.428;2024-02-21T15:40:42;9.02;;;3.55;;
81487;SDS011;70897;52.464;13.428;2024-02-21T15:43:27;9.65;;;3.80;;
81487;SDS011;70897;52.464;13.428;2024-02-21T15:46:12;10.85;;;4.20;;
81487;SDS011;70897;52.464;13.428;2024-02-21T15:48:58;11.65;;;4.20;;
81487;SDS011;70897;52.464;13.428;2024-02-21T15:51:43;10.43;;;4.30;;
81487;SDS011;70897;52.464;13.428;2024-02-21T15:54:29;18.92;;;4.80;;
81487;SDS011;70897;52.464;13.428;2024-02-21T15:57:15;12.10;;;4.80;;
81487;SDS011;70897;52.464;13.428;2024-02-21T16:00:00;10.23;;;4.68;;
81487;SDS011;70897;52.464;13.428;2024-02-21T16:02:45;17.13;;;5.13;;
81487;SDS011;70897;52.464;13.428;2024-02-21T16:05:31;12.10;;;4.80;;
81487;SDS011;70897;52.464;13.428;2024-02-21T16:08:17;12.25;;;4.95;;
81487;SDS011;70897;52.464;13.428;2024-02-21T16:11:02;10.60;;;4.70;;
81487;SDS011;70897;52.464;13.428;2024-02-21T16:13:47;13.60;;;5.05;;
81487;SDS011;70897;52.464;13.428;2024-02-21T16:16:34;15.98;;;6.00;;